• Join FlightAware (Why Join?)
  • Login
  • US Flag 
12:26AM EDT


 

Airport Tracker/Info


-or-


 

Live Flight TrackerFlight Track Log ✈ N974BC ✈ 22-Feb-2014 ✈ KLAL - KTMB

Flight Track Log - Related Links

Times and Time Zones

All times are in EST time to prevent confusion due to time zone crossing. See the N974BC flight status page for this flight to view local times or setup timezone preferences in your user account.

Time Position Orientation Groundspeed Altitude Reporting Facility
EST Latitude Longitude Course Direction KTS MPH feet Rate Location/Type
10:23PM 27.9833 -81.9833 90° East 78 90 1,400  Level Tampa TRACON
10:24PM 27.9833 -81.9667 90° East 78 90 1,900 660 Climbing Tampa TRACON
10:25PM 27.9667 -81.9500 139° Southeast 85 98 2,600 600 Climbing Tampa TRACON
10:26PM 27.9333 -81.9500 180° South 81 93 3,200 600 Climbing Tampa TRACON
10:29PM 27.8892 -81.9450 174° South 60 69 4,700 540 Climbing Miami Center
10:30PM 27.8664 -81.9392 167° South 83 96 5,200 540 Climbing Miami Center
10:31PM 27.8417 -81.9333 168° South 83 96 5,800 540 Climbing Miami Center
10:32PM 27.8189 -81.9253 163° South 83 96 6,300 540 Climbing Miami Center
10:33PM 27.7944 -81.9078 148° Southeast 89 102 6,900 300 Climbing Miami Center
10:34PM 27.7697 -81.8997 164° South 94 108 7,000  Climbing Miami Center
10:35PM 27.7431 -81.8892 161° South 94 108 6,900  Descending Miami Center
10:36PM 27.7142 -81.8786 162° South 99 114 7,000  Climbing Miami Center
10:37PM 27.6875 -81.8656 157° South 105 121 6,900 -60 Descending Miami Center
10:38PM 27.6650 -81.8575 162° South 105 121 6,900  Level Miami Center
10:39PM 27.6358 -81.8492 166° South 110 127 6,900  Level Miami Center
10:40PM 27.6075 -81.8292 148° Southeast 105 121 7,000  Climbing Miami Center
10:41PM 27.5808 -81.8164 157° South 105 121 7,000 -60 Level Miami Center
10:42PM 27.5542 -81.8036 157° South 110 127 6,900 -60 Descending Miami Center
10:43PM 27.5314 -81.7908 154° Southeast 110 127 6,900  Level Miami Center
10:44PM 27.5050 -81.7758 153° Southeast 110 127 7,000  Climbing Miami Center
10:45PM 27.4803 -81.7606 151° Southeast 110 127 7,000 -60 Level Miami Center
10:46PM 27.4536 -81.7478 157° South 110 127 6,900 -60 Descending Miami Center
10:47PM 27.4250 -81.7325 155° Southeast 110 127 6,900  Level Miami Center
10:48PM 27.3983 -81.7197 157° South 110 127 7,000  Climbing Miami Center
10:49PM 27.3736 -81.7047 152° Southeast 110 127 7,000  Level Miami Center
10:50PM 27.3450 -81.6894 155° Southeast 110 127 7,000  Level Miami Center
10:51PM 27.3183 -81.6742 153° Southeast 110 127 7,000  Level Miami Center
10:52PM 27.2917 -81.6592 153° Southeast 110 127 7,000 -60 Level Miami Center
10:53PM 27.2631 -81.6439 155° Southeast 110 127 6,900  Descending Miami Center
10:54PM 27.2364 -81.6311 157° South 110 127 7,000  Climbing Miami Center
10:55PM 27.2097 -81.6161 153° Southeast 110 127 7,000 -60 Level Miami Center
10:56PM 27.1831 -81.5986 150° Southeast 110 127 6,900  Descending Miami Center
10:57PM 27.1564 -81.5836 153° Southeast 110 127 7,000  Climbing Miami Center
10:58PM 27.1319 -81.5661 147° Southeast 110 127 7,000  Level Miami Center
10:59PM 27.1053 -81.5533 157° South 110 127 7,000  Level Miami Center
11:00PM 27.0767 -81.5361 152° Southeast 110 127 7,000  Level Miami Center
11:01PM 27.0500 -81.5208 153° Southeast 110 127 7,000 -60 Level Miami Center
11:02PM 27.0233 -81.5058 153° Southeast 110 127 6,900  Descending Miami Center
11:03PM 26.9947 -81.4883 151° Southeast 110 127 7,000  Climbing Miami Center
11:04PM 26.9658 -81.4733 155° Southeast 110 127 7,000  Level Miami Center
11:20PM 26.5156 -81.2536 157° South 104 120 7,000  Level Miami Center
11:21PM 26.5406 -81.2549 157° South  Level FlightAware Approximate
11:21PM 26.4886 -81.2411 157° South 104 120 7,000  Level Miami Center
11:22PM 26.5150 -81.2430 157° South  Level FlightAware Approximate
11:22PM 26.4642 -81.2239 148° Southeast 104 120 7,000  Level Miami Center
11:23PM 26.4893 -81.2312 157° South  Level FlightAware Approximate
11:23PM 26.4414 -81.2139 159° South 109 125 7,000  Level Miami Center
11:24PM 26.4637 -81.2193 157° South  Level FlightAware Approximate
11:24PM 26.4147 -81.2036 161° South 109 125 6,900  Level Miami Center
11:25PM 26.4381 -81.2074 157° South  Level FlightAware Approximate
11:25PM 26.3878 -81.1911 157° South 109 125 6,900  Level Miami Center
11:26PM 26.3653 -81.1786 154° Southeast 104 120 7,000 60 Climbing Miami Center
11:27PM 26.3431 -81.1569 139° Southeast 104 120 7,100 -60 Climbing Miami Center
11:28PM 26.3206 -81.1353 139° Southeast 99 114 6,900 -120 Descending Miami Center
11:29PM 26.3003 -81.1136 136° Southeast 104 120 6,900  Level Miami Center
11:30PM 26.2761 -81.0897 138° Southeast 104 120 7,000  Climbing Miami Center
11:31PM 26.2558 -81.0703 139° Southeast 109 125 7,000  Level Miami Center
11:32PM 26.2378 -81.0442 128° Southeast 104 120 7,000  Level Miami Center
11:33PM 26.2175 -81.0228 137° Southeast 110 127 7,000 -120 Level Miami Center
11:34PM 26.1989 -81.0106 149° Southeast 105 121 6,900  Descending Miami Center
11:34PM 26.1972 -80.9989 99° East 110 127 7,000 60 Climbing Miami Center
11:35PM 26.1769 -80.9797 140° Southeast 105 121 7,000 -120 Level Miami Center
11:35PM 26.1686 -80.9794 178° South 102 117 6,900  Descending Miami Center
11:36PM 26.1567 -80.9581 122° Southeast 105 121 7,000  Climbing Miami Center
11:36PM 26.1483 -80.9533 153° Southeast 101 116 6,900  Descending Miami Center
11:37PM 26.1303 -80.9317 133° Southeast 101 116 7,000 -60 Climbing Miami Center
11:38PM 26.1161 -80.9150 133° Southeast 105 121 6,800 -540 Descending Miami Center
11:38PM 26.1078 -80.9147 178° South 94 108 6,500 -540 Descending Miami Center
11:39PM 26.0978 -80.8936 118° Southeast 105 121 6,300 -420 Descending Miami Center
11:39PM 26.0894 -80.8956 192° South 96 110 6,100 -420 Descending Miami Center
11:40PM 26.0775 -80.8744 122° Southeast 105 121 5,900 -540 Descending Miami Center
11:40PM 26.0692 -80.8742 178° South 93 107 5,600 -600 Descending Miami Center
11:41PM 26.0592 -80.8553 121° Southeast 105 121 5,300 -600 Descending Miami Center
11:42PM 26.0489 -80.8503 156° South 96 110 4,900 -660 Descending Miami Center
11:42PM 26.0389 -80.8339 124° Southeast 105 121 4,700 -540 Descending Miami Center
11:42PM 26.0347 -80.8336 177° South 98 113 4,500 -840 Descending Miami Center
11:43PM 26.0122 -80.8192 150° Southeast 92 106 3,900 -660 Descending Miami Center
11:44PM 25.9789 -80.8111 168° South 97 112 3,200 -540 Descending Miami Center
11:45PM 25.9542 -80.8033 164° South 94 108 2,800 -180 Descending Miami Center
11:47PM 25.9250 -80.7956 167° South 106 122 2,900  Climbing Miami Center
11:48PM 25.8919 -80.7850 164° South 102 117 2,800  Descending Miami Center
11:49PM 25.8669 -80.7797 169° South 104 120 2,900  Climbing Miami Center
11:50PM 25.8381 -80.7694 162° South 106 122 2,900  Level Miami Center
11:51PM 25.8089 -80.7617 167° South 104 120 2,900 -60 Level Miami Center
11:52PM 25.7819 -80.7561 169° South 105 121 2,800  Descending Miami Center
11:53PM 25.7531 -80.7483 166° South 102 117 2,900  Climbing Miami Center
11:54PM 25.7217 -80.7428 171° South 106 122 2,900  Level Miami Center
11:54PM 25.7031 -80.7353 160° South 107 123 2,900 -360 Level Miami Center
11:56PM 25.6658 -80.7247 166° South 103 119 2,200 -480 Descending Miami Center
11:56PM 25.6475 -80.7081 141° Southeast 101 116 1,900 -180 Descending Miami Center
11:57PM 25.6356 -80.6847 120° Southeast 102 117 1,900 -60 Level Miami Center
11:59PM 25.6303 -80.6453 98° East 109 125 1,800  Descending Miami Center
12:00AM 25.6308 -80.6200 89° East 101 116 1,900  Climbing Miami Center
12:01AM 25.6342 -80.5764 85° East 108 124 1,900 -240 Level Miami Center
12:02AM 25.6350 -80.5417 88° East 104 120 1,400 -360 Descending Miami Center
12:02AM 25.6356 -80.5233 88° East 118 136 1,300 -420 Descending Miami Center
12:03AM 25.6383 -80.4958 84° East 94 108 800 -480 Descending Miami Center
12:04AM 25.6389 -80.4658 89° East 90 104 400 -420 Descending Miami Center
12:06AM 25.6352 -80.4329 97° East  Level FlightAware Approximate
12:13AM 25.6333 -80.4167 113° Southeast  Level FlightAware Approximate